Archival Weather

Chicago O'Hare International

Chicago, Illinois (KORD)

Report from: Saturday, November 5, 2022 12:51 AM CDT
Current time: Saturday, March 2, 2024 3:15 AM CST

Current weather – Weather history – Daily summaries
Weather forecast

Temperature21.1°C (70.0°F)
Dew point12.2°C (54.0°F)
Winds 19 kts (9.8 m/s, 21.9 mph) South (180°)
Wind gusts 32 kts (16.5 m/s, 36.8 mph)
Peak wind 36 kts (18.5 m/s, 41.4 mph) South (180°) at 05:35
Visibility10 mi. (16.1 km)
Clouds Ceiling: Broken clouds 4,600 ft. (1,402 m)
Broken clouds 5,500 ft. (1,676 m)
Overcast 7,500 ft. (2,286 m)
Altimeter29.67 in.Hg (1005 mB)
PrecipitiationTrace
Precip. events Rain began 5:11 AM
Rain ended 5:22 AM
Precip last 3 hoursTrace
Relative humidity57 %
Density altitude1,218 ft. (371 m)
Sea-level pressure100.4 kPa (1004 mB, 29.65 in.Hg)
Max temp last 6 hours22.2°C (72.0°F)
Min temp last 6 hours20.0°C (68.0°F)
Max temp last 24 hours22.2°C (72.0°F)
Min temp last 24 hours16.1°C (61.0°F)
Remarks Automated weather observing station with precipitation discriminator
Pressure falling more quickly
Flight conditions Visual Meteorological Conditions
Raw dataKORD 050551Z 18019G32KT 10SM BKN046 BKN055 OVC075 21/12 A2967 RMK AO2 PK WND 18036/0535 RAB11E22 SLP042 P0000 60000 T02110122 10222 20200 402220161 58026
An error has occurred. This application may no longer respond until reloaded. Reload 🗙